Time;durP1;ratioP1;P1;durP2;ratioP2;P2;SDS_P1;SDS_P2;PMS_P1;PMS_P2;Temp;Humidity;BMP_temperature;BMP_pressure;BME280_temperature;BME280_humidity;BME280_pressure;Samples;Min_cycle;Max_cycle;Signal;HPM_P1;HPM_P2
2020/12/27 00:00:37;;;;;;;41.47;20.77;;;4.80;99.90;;;;;;5072423;28;20437;-79
2020/12/27 00:03:03;;;;;;;34.55;20.50;;;4.80;99.90;;;;;;5073705;28;20029;-79
2020/12/27 00:05:28;;;;;;;30.45;20.48;;;4.80;99.90;;;;;;5073350;28;20025;-79
2020/12/27 00:07:54;;;;;;;30.17;20.27;;;4.80;99.90;;;;;;5065752;28;20033;-78
2020/12/27 00:10:20;;;;;;;31.33;20.13;;;4.80;99.90;;;;;;5053639;28;20056;-79
2020/12/27 00:12:45;;;;;;;29.65;18.65;;;4.80;99.90;;;;;;5073430;28;20021;-80
2020/12/27 00:15:11;;;;;;;25.63;17.98;;;4.90;99.90;;;;;;5073231;28;20107;-79
2020/12/27 00:17:36;;;;;;;45.17;20.42;;;4.90;99.90;;;;;;5070550;28;20045;-79
2020/12/27 00:20:05;;;;;;;27.23;19.48;;;4.90;99.90;;;;;;5053195;28;20099;-79
2020/12/27 00:22:30;;;;;;;34.25;19.67;;;4.80;99.90;;;;;;5053131;28;20477;-79
2020/12/27 00:24:56;;;;;;;36.95;19.35;;;4.80;99.90;;;;;;5052972;28;20028;-79
2020/12/27 00:27:21;;;;;;;28.23;18.05;;;4.90;99.90;;;;;;5051813;28;20029;-79
2020/12/27 00:29:47;;;;;;;30.65;18.80;;;4.80;99.90;;;;;;5069712;28;20031;-79
2020/12/27 00:32:13;;;;;;;29.10;17.92;;;4.90;99.90;;;;;;5071806;28;20111;-79
2020/12/27 00:34:39;;;;;;;29.23;18.63;;;4.90;99.90;;;;;;5072705;28;20480;-79
2020/12/27 00:37:05;;;;;;;26.42;17.50;;;4.90;99.90;;;;;;5070565;28;20078;-79
2020/12/27 00:39:30;;;;;;;32.00;18.00;;;4.90;99.90;;;;;;5051724;28;20017;-78
2020/12/27 00:42:00;;;;;;;31.17;18.80;;;4.90;99.90;;;;;;5052913;28;20389;-78
2020/12/27 00:44:26;;;;;;;30.73;17.52;;;4.90;99.90;;;;;;5052691;28;20056;-79
2020/12/27 00:46:51;;;;;;;23.98;15.40;;;4.90;99.90;;;;;;5051358;28;20063;-79
2020/12/27 00:49:18;;;;;;;29.55;16.80;;;4.90;99.90;;;;;;5068490;28;20040;-80
2020/12/27 00:51:44;;;;;;;27.77;16.02;;;5.00;99.90;;;;;;5072711;28;20016;-78
2020/12/27 00:54:09;;;;;;;18.98;15.10;;;5.00;99.90;;;;;;5053212;28;20082;-79
2020/12/27 00:56:35;;;;;;;19.27;13.75;;;5.00;99.90;;;;;;5052555;28;20025;-79
2020/12/27 00:59:01;;;;;;;22.75;14.05;;;5.00;99.90;;;;;;5063291;28;20069;-79
2020/12/27 01:01:26;;;;;;;24.73;14.57;;;5.00;99.90;;;;;;5072327;28;20020;-79
2020/12/27 01:03:52;;;;;;;24.92;14.60;;;5.00;99.90;;;;;;5072327;28;20016;-79
2020/12/27 01:06:24;;;;;;;22.13;13.77;;;5.00;99.90;;;;;;5070729;28;20024;-79
2020/12/27 01:08:50;;;;;;;22.75;13.65;;;5.00;99.90;;;;;;5055665;28;20033;-79
2020/12/27 01:11:16;;;;;;;25.35;14.07;;;5.00;99.90;;;;;;5052414;28;20404;-78
2020/12/27 01:13:42;;;;;;;23.48;14.00;;;5.00;99.90;;;;;;5052181;28;20029;-79
2020/12/27 01:16:18;;;;;;;21.00;13.23;;;5.00;99.90;;;;;;5050643;28;20036;-78
2020/12/27 01:18:45;;;;;;;22.25;14.65;;;5.00;99.90;;;;;;5061899;28;20036;-79
2020/12/27 01:21:10;;;;;;;20.80;14.30;;;5.00;99.90;;;;;;5071015;28;20109;-79
2020/12/27 01:23:36;;;;;;;20.90;13.73;;;5.00;99.90;;;;;;5058714;28;20064;-79
2020/12/27 01:26:02;;;;;;;16.92;12.65;;;5.10;99.90;;;;;;5052026;28;20057;-79
2020/12/27 01:28:27;;;;;;;27.48;14.95;;;5.10;99.90;;;;;;5052005;28;20021;-79
2020/12/27 01:30:53;;;;;;;17.95;14.43;;;5.00;99.90;;;;;;5050687;28;20048;-79
2020/12/27 01:33:18;;;;;;;20.85;14.63;;;5.00;99.90;;;;;;5059789;28;20117;-79
2020/12/27 01:35:45;;;;;;;25.73;15.05;;;5.00;99.90;;;;;;5070562;28;20063;-79
2020/12/27 01:38:11;;;;;;;20.98;13.63;;;5.00;99.90;;;;;;5071513;28;20025;-78
2020/12/27 01:40:36;;;;;;;17.40;14.10;;;5.00;99.90;;;;;;5070762;28;20028;-79
2020/12/27 01:43:02;;;;;;;17.98;13.60;;;5.00;99.90;;;;;;5070814;28;20028;-79
2020/12/27 01:45:28;;;;;;;28.52;15.13;;;5.00;99.90;;;;;;5071604;28;20067;-79
2020/12/27 01:47:54;;;;;;;22.45;14.45;;;5.00;99.90;;;;;;5071816;28;20028;-79
2020/12/27 01:50:20;;;;;;;18.25;14.93;;;5.00;99.90;;;;;;5071833;28;20032;-79
2020/12/27 01:52:46;;;;;;;23.73;16.63;;;5.00;99.90;;;;;;5065345;28;20098;-78
2020/12/27 01:55:12;;;;;;;22.67;18.05;;;4.90;99.90;;;;;;5051546;28;20068;-78
2020/12/27 01:57:52;;;;;;;24.20;20.38;;;4.90;99.90;;;;;;5050274;28;20515;-79
2020/12/27 02:00:19;;;;;;;32.30;21.45;;;4.80;99.90;;;;;;5051574;28;20079;-79
2020/12/27 02:02:45;;;;;;;31.13;21.85;;;4.80;99.90;;;;;;5054824;28;20036;-79
2020/12/27 02:05:12;;;;;;;30.08;22.48;;;4.80;99.90;;;;;;5069808;28;20025;-79
2020/12/27 02:07:38;;;;;;;29.40;23.30;;;4.70;99.90;;;;;;5071338;28;20044;-78
2020/12/27 02:10:04;;;;;;;30.73;22.48;;;4.70;99.90;;;;;;5071706;28;20439;-78
2020/12/27 02:12:29;;;;;;;32.03;22.63;;;4.70;99.90;;;;;;5071448;28;20074;-79
2020/12/27 02:14:55;;;;;;;28.00;23.70;;;4.80;99.90;;;;;;5052576;28;20029;-79
2020/12/27 02:17:21;;;;;;;33.33;23.02;;;4.80;99.90;;;;;;5051946;28;20103;-78
2020/12/27 02:19:46;;;;;;;29.55;23.52;;;4.80;99.90;;;;;;5055618;28;20448;-78
2020/12/27 02:22:12;;;;;;;28.58;21.05;;;4.80;99.90;;;;;;5056837;28;20381;-79
2020/12/27 02:24:37;;;;;;;26.20;21.88;;;4.80;99.90;;;;;;5074016;28;20093;-78
2020/12/27 02:27:04;;;;;;;27.23;22.85;;;4.80;99.90;;;;;;5073964;28;20035;-79
2020/12/27 02:29:33;;;;;;;31.73;22.48;;;4.80;99.90;;;;;;5075468;28;20029;-78
2020/12/27 02:31:59;;;;;;;32.42;22.27;;;4.80;99.90;;;;;;5075420;28;20453;-78
2020/12/27 02:34:25;;;;;;;30.15;22.90;;;4.80;99.90;;;;;;5056608;28;20064;-79
2020/12/27 02:36:51;;;;;;;31.65;24.30;;;4.80;99.90;;;;;;5072484;28;20040;-79
2020/12/27 02:39:19;;;;;;;28.00;22.00;;;4.70;99.90;;;;;;5073658;28;20135;-79
2020/12/27 02:41:48;;;;;;;27.88;22.70;;;4.70;99.90;;;;;;5075117;28;20024;-78
2020/12/27 02:44:14;;;;;;;28.52;22.60;;;4.70;99.90;;;;;;5074900;28;20401;-78
2020/12/27 02:46:40;;;;;;;28.35;23.23;;;4.70;99.90;;;;;;5061954;28;20064;-79
2020/12/27 02:49:06;;;;;;;27.25;21.25;;;4.70;99.90;;;;;;5054950;28;20021;-79
2020/12/27 02:51:32;;;;;;;28.42;22.65;;;4.70;99.90;;;;;;5054963;28;20112;-78
2020/12/27 02:53:58;;;;;;;31.20;23.75;;;4.70;99.90;;;;;;5069244;28;20163;-78
2020/12/27 02:56:29;;;;;;;27.38;23.35;;;4.70;99.90;;;;;;5073559;28;20067;-79
2020/12/27 02:58:57;;;;;;;28.80;22.73;;;4.70;99.90;;;;;;5073475;28;20031;-78
2020/12/27 03:01:23;;;;;;;35.08;23.58;;;4.70;99.90;;;;;;5074677;28;20095;-79
2020/12/27 03:03:48;;;;;;;28.48;22.70;;;4.70;99.90;;;;;;5062407;28;20029;-78
2020/12/27 03:06:14;;;;;;;26.48;20.98;;;4.70;99.90;;;;;;5055321;28;20031;-78
2020/12/27 03:08:40;;;;;;;32.20;22.60;;;4.80;99.90;;;;;;5074225;28;20025;-78
2020/12/27 03:11:07;;;;;;;29.27;22.17;;;4.80;99.90;;;;;;5073359;28;20494;-78
2020/12/27 03:13:33;;;;;;;29.60;20.33;;;4.80;99.90;;;;;;5067103;28;20435;-78
2020/12/27 03:16:04;;;;;;;23.75;19.65;;;4.80;99.90;;;;;;5051919;28;20035;-78
2020/12/27 03:18:30;;;;;;;22.67;19.42;;;4.80;99.90;;;;;;5054024;28;20029;-79
2020/12/27 03:20:55;;;;;;;24.25;18.63;;;4.80;99.90;;;;;;5054498;28;20036;-79
2020/12/27 03:23:22;;;;;;;20.90;17.75;;;4.80;99.90;;;;;;5065003;28;20024;-78
2020/12/27 03:25:48;;;;;;;24.40;17.23;;;4.80;99.90;;;;;;5073202;28;20051;-78
2020/12/27 03:28:14;;;;;;;20.50;16.55;;;4.80;99.90;;;;;;5072505;28;20029;-79
2020/12/27 03:30:40;;;;;;;20.17;15.02;;;4.80;99.90;;;;;;5072983;28;20484;-78
2020/12/27 03:33:05;;;;;;;18.30;15.70;;;4.80;99.90;;;;;;5066872;28;20079;-79
2020/12/27 03:35:31;;;;;;;20.83;16.45;;;4.80;99.90;;;;;;5053947;28;20542;-78
2020/12/27 03:37:57;;;;;;;18.30;14.43;;;4.80;99.90;;;;;;5052540;28;20081;-78
2020/12/27 03:40:22;;;;;;;15.32;12.55;;;4.80;99.90;;;;;;5054141;28;20025;-79
2020/12/27 03:42:48;;;;;;;22.55;13.60;;;4.80;99.90;;;;;;5054545;28;20021;-79
2020/12/27 03:45:14;;;;;;;14.23;12.70;;;4.80;99.90;;;;;;5073611;28;20028;-79
2020/12/27 03:47:40;;;;;;;17.85;12.13;;;4.90;99.90;;;;;;5072590;28;20025;-79
2020/12/27 03:50:06;;;;;;;12.23;11.00;;;4.90;99.90;;;;;;5072664;28;20036;-79
2020/12/27 03:52:32;;;;;;;13.88;10.93;;;4.90;99.90;;;;;;5069468;28;20032;-79
2020/12/27 03:54:57;;;;;;;12.45;9.57;;;4.90;99.90;;;;;;5053657;28;20025;-78
2020/12/27 03:57:23;;;;;;;12.65;9.95;;;4.90;99.90;;;;;;5053611;28;20509;-78
2020/12/27 03:59:49;;;;;;;12.55;9.65;;;4.90;99.90;;;;;;5053675;28;20025;-78
2020/12/27 04:02:15;;;;;;;10.25;8.18;;;4.90;99.90;;;;;;5052401;28;20025;-77
2020/12/27 04:04:40;;;;;;;8.75;7.85;;;5.00;99.90;;;;;;5072261;28;20112;-78
2020/12/27 04:07:06;;;;;;;11.95;8.23;;;5.00;99.90;;;;;;5073088;28;20028;-78
2020/12/27 04:09:32;;;;;;;13.23;8.63;;;5.00;99.90;;;;;;5073569;28;20036;-78
2020/12/27 04:11:58;;;;;;;9.07;8.18;;;5.00;99.90;;;;;;5073410;28;20024;-78
2020/12/27 04:14:23;;;;;;;9.52;7.55;;;5.00;99.90;;;;;;5059151;28;20029;-78
2020/12/27 04:16:49;;;;;;;8.63;6.75;;;5.00;99.90;;;;;;5051985;28;20055;-79
2020/12/27 04:19:14;;;;;;;10.63;7.15;;;5.00;99.90;;;;;;5053432;28;20029;-78
2020/12/27 04:21:46;;;;;;;7.60;5.85;;;5.00;99.90;;;;;;5053280;28;20064;-79
2020/12/27 04:24:12;;;;;;;10.00;6.70;;;5.00;99.90;;;;;;5070735;28;20033;-78
2020/12/27 04:26:38;;;;;;;10.07;6.53;;;5.00;99.90;;;;;;5073158;28;20078;-78
2020/12/27 04:29:04;;;;;;;6.63;5.93;;;5.00;99.90;;;;;;5073124;28;20035;-79
2020/12/27 04:31:29;;;;;;;7.00;6.00;;;5.00;99.90;;;;;;5073191;28;20071;-78
2020/12/27 04:33:56;;;;;;;8.18;6.03;;;5.00;99.90;;;;;;5059926;28;20056;-78
2020/12/27 04:36:22;;;;;;;5.88;5.22;;;5.00;99.90;;;;;;5052835;28;20021;-78
2020/12/27 04:38:48;;;;;;;8.07;5.68;;;5.00;99.90;;;;;;5052905;28;20103;-79
2020/12/27 04:41:16;;;;;;;9.00;5.05;;;5.00;99.90;;;;;;5052097;28;20454;-79
2020/12/27 04:43:43;;;;;;;5.38;4.65;;;5.00;99.90;;;;;;5060673;28;20020;-78
2020/12/27 04:46:10;;;;;;;7.05;5.57;;;5.00;99.90;;;;;;5071512;28;20030;-79
2020/12/27 04:48:38;;;;;;;7.25;5.72;;;4.90;99.90;;;;;;5071334;28;20017;-79
2020/12/27 04:51:05;;;;;;;7.25;5.05;;;4.90;99.90;;;;;;5071484;28;20025;-78
2020/12/27 04:53:31;;;;;;;6.65;4.57;;;4.80;99.90;;;;;;5060255;28;20485;-78
2020/12/27 04:56:00;;;;;;;5.93;5.30;;;4.80;99.90;;;;;;5052443;28;20021;-79
2020/12/27 04:58:25;;;;;;;6.40;5.07;;;4.80;99.90;;;;;;5052513;28;20036;-79
2020/12/27 05:00:51;;;;;;;5.50;4.88;;;4.70;99.90;;;;;;5052588;28;20361;-79
2020/12/27 05:03:16;;;;;;;9.20;5.32;;;4.70;99.90;;;;;;5052704;28;20029;-79
2020/12/27 05:05:42;;;;;;;8.82;5.30;;;4.60;99.90;;;;;;5051114;28;20029;-78
2020/12/27 05:08:08;;;;;;;6.15;4.85;;;4.60;99.90;;;;;;5051045;28;20029;-78
2020/12/27 05:10:40;;;;;;;7.25;4.47;;;4.60;99.90;;;;;;5052405;28;20051;-79
2020/12/27 05:13:08;;;;;;;5.97;4.75;;;4.60;99.90;;;;;;5053416;28;20024;-79
2020/12/27 05:15:38;;;;;;;6.75;5.13;;;4.50;99.90;;;;;;5052149;28;20021;-79
2020/12/27 05:18:04;;;;;;;9.25;5.47;;;4.50;99.90;;;;;;5052049;28;20037;-79
2020/12/27 05:20:32;;;;;;;7.07;4.28;;;4.50;99.90;;;;;;5052237;28;20021;-79
2020/12/27 05:22:59;;;;;;;4.15;3.75;;;4.50;99.90;;;;;;5058371;28;20019;-79
2020/12/27 05:25:25;;;;;;;5.20;3.67;;;4.50;99.90;;;;;;5071954;28;20428;-79
2020/12/27 05:27:54;;;;;;;4.47;3.70;;;4.50;99.90;;;;;;5072111;28;20468;-79
2020/12/27 05:30:26;;;;;;;4.72;3.60;;;4.50;99.90;;;;;;5072027;28;20025;-79
2020/12/27 05:32:51;;;;;;;3.80;3.45;;;4.50;99.90;;;;;;5068019;28;20099;-78
2020/12/27 05:35:17;;;;;;;6.88;3.47;;;4.50;99.90;;;;;;5050593;28;20131;-79
2020/12/27 05:37:43;;;;;;;5.60;4.32;;;4.40;99.90;;;;;;5050540;28;20025;-79
2020/12/27 05:40:08;;;;;;;5.50;3.30;;;4.40;99.90;;;;;;5050636;28;20035;-79
2020/12/27 05:42:35;;;;;;;4.47;3.92;;;4.30;99.90;;;;;;5050646;28;20020;-78
2020/12/27 05:45:11;;;;;;;7.55;4.55;;;4.20;99.90;;;;;;5070413;28;20074;-79
2020/12/27 05:47:40;;;;;;;5.15;4.05;;;4.10;99.90;;;;;;5070545;28;20035;-79
2020/12/27 05:50:07;;;;;;;9.07;4.65;;;4.20;99.90;;;;;;5070585;28;20039;-80
2020/12/27 05:52:46;;;;;;;5.43;4.00;;;4.00;99.90;;;;;;5066086;28;20457;-80
2020/12/27 05:55:22;;;;;;;12.05;5.00;;;3.90;99.90;;;;;;5051637;28;20377;-80
2020/12/27 05:57:52;;;;;;;8.02;4.97;;;3.90;99.90;;;;;;5051658;28;20025;-80
2020/12/27 06:00:20;;;;;;;8.13;4.78;;;3.80;99.90;;;;;;5051678;28;20052;-79
2020/12/27 06:02:59;;;;;;;10.13;4.97;;;3.70;99.90;;;;;;5054673;28;20024;-79
2020/12/27 06:06:10;;;;;;;7.57;5.47;;;3.70;99.90;;;;;;5071605;28;20035;-79
2020/12/27 06:08:54;;;;;;;7.22;4.72;;;3.60;99.90;;;;;;5069847;28;20059;-80
2020/12/27 06:11:32;;;;;;;6.18;4.57;;;3.60;99.90;;;;;;5071655;28;20036;-80
2020/12/27 06:14:13;;;;;;;7.10;4.88;;;3.60;99.90;;;;;;5059542;28;20025;-79
2020/12/27 06:16:44;;;;;;;6.25;4.85;;;3.60;99.90;;;;;;5051425;28;20035;-79
2020/12/27 06:19:46;;;;;;;5.43;4.05;;;3.60;99.90;;;;;;5050245;28;20028;-79
2020/12/27 06:22:12;;;;;;;9.48;5.20;;;3.60;99.90;;;;;;5044115;28;20041;-80
2020/12/27 06:24:38;;;;;;;5.15;4.18;;;3.60;99.90;;;;;;5071112;28;20024;-79
2020/12/27 06:27:05;;;;;;;12.35;4.70;;;3.60;99.90;;;;;;5070218;28;20435;-79
2020/12/27 06:29:45;;;;;;;8.40;4.68;;;3.50;99.90;;;;;;5071495;28;20035;-80
2020/12/27 06:32:15;;;;;;;16.30;4.65;;;3.40;99.90;;;;;;5070283;28;20036;-79
2020/12/27 06:34:40;;;;;;;11.02;4.80;;;3.40;99.90;;;;;;5052435;28;20385;-80
2020/12/27 06:37:06;;;;;;;8.43;4.40;;;3.40;99.90;;;;;;5049578;28;20029;-80
2020/12/27 06:39:32;;;;;;;7.07;4.10;;;3.40;99.90;;;;;;5050113;28;20021;-80
2020/12/27 06:42:11;;;;;;;7.20;4.10;;;3.30;99.90;;;;;;5051349;28;20025;-80
2020/12/27 06:44:50;;;;;;;9.18;4.07;;;3.30;99.90;;;;;;5066166;28;20021;-80
2020/12/27 06:47:17;;;;;;;10.00;4.53;;;3.30;99.90;;;;;;5071226;28;20096;-80
2020/12/27 06:49:44;;;;;;;6.43;4.15;;;3.30;99.90;;;;;;5071586;28;20024;-81
2020/12/27 06:52:19;;;;;;;5.28;3.88;;;3.30;99.90;;;;;;5068888;28;20484;-80
2020/12/27 06:54:50;;;;;;;4.78;3.40;;;3.40;99.90;;;;;;5051009;28;20499;-80
2020/12/27 06:57:43;;;;;;;7.72;4.03;;;3.40;99.90;;;;;;5051122;28;20025;-79
2020/12/27 07:00:30;;;;;;;4.32;3.15;;;3.40;99.90;;;;;;5051177;28;20503;-80
2020/12/27 07:03:09;;;;;;;6.35;4.72;;;3.30;99.90;;;;;;5054325;28;20029;-80
2020/12/27 07:05:37;;;;;;;8.77;4.68;;;3.40;99.90;;;;;;5074627;28;20397;-79
2020/12/27 07:08:11;;;;;;;6.22;4.78;;;3.30;99.90;;;;;;5074411;28;20032;-79
2020/12/27 07:10:50;;;;;;;5.40;3.83;;;3.30;99.90;;;;;;5074736;28;20032;-80
2020/12/27 07:13:17;;;;;;;6.57;4.07;;;3.30;99.90;;;;;;5068664;28;20072;-79
2020/12/27 07:15:59;;;;;;;4.53;3.78;;;3.30;99.90;;;;;;5060520;28;20044;-79
2020/12/27 07:18:27;;;;;;;4.60;3.35;;;3.30;99.90;;;;;;5073256;28;20032;-79
2020/12/27 07:20:57;;;;;;;5.60;3.38;;;3.40;99.90;;;;;;5073091;28;20039;-80
2020/12/27 07:23:25;;;;;;;6.90;3.65;;;3.40;99.90;;;;;;5063311;28;20099;-80
2020/12/27 07:26:01;;;;;;;7.15;3.63;;;3.40;99.90;;;;;;5054219;28;20017;-80
2020/12/27 07:28:28;;;;;;;8.20;3.92;;;3.40;99.90;;;;;;5054352;28;20081;-79
2020/12/27 07:31:02;;;;;;;7.28;3.15;;;3.40;99.90;;;;;;5054363;28;20025;-79
2020/12/27 07:33:33;;;;;;;4.65;2.97;;;3.40;99.90;;;;;;5062819;28;20033;-79
2020/12/27 07:36:02;;;;;;;5.95;3.25;;;3.40;99.90;;;;;;5072802;28;20036;-79
2020/12/27 07:38:48;;;;;;;13.00;3.20;;;3.40;99.90;;;;;;5073716;28;20037;-80
2020/12/27 07:41:30;;;;;;;3.38;3.00;;;3.40;99.90;;;;;;5074260;28;20028;-79
2020/12/27 07:43:57;;;;;;;4.70;2.88;;;3.40;99.90;;;;;;5072301;28;20040;-79
2020/12/27 07:46:24;;;;;;;3.28;2.70;;;3.40;99.90;;;;;;5072849;28;20038;-80
2020/12/27 07:48:50;;;;;;;6.70;2.78;;;3.40;99.90;;;;;;5072576;28;20154;-79
2020/12/27 07:51:18;;;;;;;5.20;2.95;;;3.50;99.90;;;;;;5072611;28;20028;-79
2020/12/27 07:53:54;;;;;;;3.63;2.65;;;3.50;99.90;;;;;;5058479;28;20028;-80
2020/12/27 07:56:25;;;;;;;8.70;3.53;;;3.50;99.90;;;;;;5053710;28;20036;-79
2020/12/27 07:58:52;;;;;;;4.80;3.35;;;3.50;99.90;;;;;;5053679;28;20029;-80
2020/12/27 08:01:21;;;;;;;3.35;2.83;;;3.50;99.90;;;;;;5053787;28;20504;-79
2020/12/27 08:03:51;;;;;;;4.82;3.47;;;3.50;99.90;;;;;;5063282;28;20029;-79
2020/12/27 08:06:17;;;;;;;3.35;2.90;;;3.50;99.90;;;;;;5072318;28;20034;-80
2020/12/27 08:08:44;;;;;;;3.90;3.00;;;3.50;99.90;;;;;;5073151;28;20070;-80
2020/12/27 08:11:23;;;;;;;3.40;3.08;;;3.50;99.90;;;;;;5072267;28;20477;-79
2020/12/27 08:14:00;;;;;;;4.57;2.65;;;3.50;99.90;;;;;;5062972;28;20025;-80
2020/12/27 08:16:27;;;;;;;3.47;3.15;;;3.50;99.90;;;;;;5052042;28;20035;-79
2020/12/27 08:19:01;;;;;;;4.00;2.55;;;3.50;99.90;;;;;;5052078;28;20103;-79
2020/12/27 08:21:27;;;;;;;3.33;2.90;;;3.50;99.90;;;;;;5052091;28;20021;-79
2020/12/27 08:24:02;;;;;;;4.88;3.30;;;3.50;99.90;;;;;;5053283;28;20029;-80
2020/12/27 08:26:29;;;;;;;4.50;2.40;;;3.60;99.90;;;;;;5053313;28;20471;-78
2020/12/27 08:29:14;;;;;;;12.35;3.40;;;3.50;99.90;;;;;;5053219;28;20370;-79
2020/12/27 08:31:44;;;;;;;3.78;2.65;;;3.50;99.90;;;;;;5051419;28;20104;-80
2020/12/27 08:34:15;;;;;;;4.05;2.40;;;3.50;99.90;;;;;;5061073;28;20025;-80
2020/12/27 08:36:46;;;;;;;5.05;2.75;;;3.50;99.90;;;;;;5050647;28;20049;-79
2020/12/27 08:39:14;;;;;;;4.80;3.42;;;3.50;99.90;;;;;;5068926;28;20111;-79
2020/12/27 08:41:45;;;;;;;4.15;2.60;;;3.60;99.90;;;;;;5056959;28;20020;-80
2020/12/27 08:44:17;;;;;;;5.78;2.88;;;3.50;99.90;;;;;;5071463;28;20103;-79
2020/12/27 08:46:46;;;;;;;7.25;3.38;;;3.50;99.90;;;;;;5072333;28;20067;-80
2020/12/27 08:49:29;;;;;;;4.63;3.47;;;3.50;99.90;;;;;;5071095;28;20028;-80
2020/12/27 08:52:04;;;;;;;3.08;2.78;;;3.50;99.90;;;;;;5072412;28;20036;-79
2020/12/27 08:54:32;;;;;;;2.97;2.67;;;3.50;99.90;;;;;;5067945;28;20025;-80
2020/12/27 08:56:59;;;;;;;4.82;3.15;;;3.50;99.90;;;;;;5070649;28;20024;-81
2020/12/27 08:59:25;;;;;;;4.47;3.45;;;3.50;99.90;;;;;;5071334;28;20301;-80
2020/12/27 09:01:50;;;;;;;5.25;3.58;;;3.50;99.90;;;;;;5071309;28;20111;-79
2020/12/27 09:04:20;;;;;;;3.80;3.40;;;3.50;99.90;;;;;;5057656;28;20392;-81
2020/12/27 09:06:55;;;;;;;8.82;3.80;;;3.40;99.90;;;;;;5067329;28;20032;-82
2020/12/27 09:09:21;;;;;;;9.05;4.18;;;3.40;99.90;;;;;;5071702;28;20033;-81
2020/12/27 09:11:48;;;;;;;5.05;3.53;;;3.40;99.90;;;;;;5071337;28;20537;-81
2020/12/27 09:14:33;;;;;;;7.47;3.67;;;3.40;99.90;;;;;;5062557;28;20060;-81
2020/12/27 09:17:05;;;;;;;4.57;3.58;;;3.40;99.90;;;;;;5052096;28;20396;-81
2020/12/27 09:19:34;;;;;;;4.45;3.55;;;3.40;99.90;;;;;;5052127;28;20026;-81
2020/12/27 09:22:03;;;;;;;4.47;3.40;;;3.40;99.90;;;;;;5051007;28;20028;-83
2020/12/27 09:24:28;;;;;;;9.25;3.80;;;3.40;99.90;;;;;;5066937;28;20052;-84
2020/12/27 09:27:04;;;;;;;3.90;3.50;;;3.40;99.90;;;;;;5051699;28;20052;-83
2020/12/27 09:29:30;;;;;;;4.03;3.63;;;3.30;99.90;;;;;;5051278;28;20029;-81
2020/12/27 09:32:10;;;;;;;6.10;3.30;;;3.30;99.90;;;;;;5052066;28;20086;-83
2020/12/27 09:34:36;;;;;;;7.03;4.10;;;3.30;99.90;;;;;;5069162;28;20542;-83
2020/12/27 09:37:15;;;;;;;10.32;4.07;;;3.30;99.90;;;;;;5071878;28;20020;-83
2020/12/27 09:39:40;;;;;;;3.45;3.15;;;3.30;99.90;;;;;;5070762;28;20024;-83
2020/12/27 09:42:06;;;;;;;8.07;3.70;;;3.30;99.90;;;;;;5070732;28;20027;-83
2020/12/27 09:44:31;;;;;;;5.25;3.72;;;3.30;99.90;;;;;;5058641;28;20036;-81
2020/12/27 09:47:01;;;;;;;6.28;3.70;;;3.30;99.90;;;;;;5062485;28;20029;-82
2020/12/27 09:49:32;;;;;;;12.55;3.58;;;3.30;99.90;;;;;;5067179;28;20020;-81
2020/12/27 09:52:11;;;;;;;6.70;4.18;;;3.30;99.90;;;;;;5050533;28;20477;-79
2020/12/27 09:54:42;;;;;;;5.38;3.80;;;3.30;99.90;;;;;;5050350;28;20060;-82
2020/12/27 09:57:15;;;;;;;8.85;3.63;;;3.30;99.90;;;;;;5051481;28;20107;-80
2020/12/27 09:59:44;;;;;;;5.03;3.75;;;3.30;99.90;;;;;;5051739;28;20021;-81
2020/12/27 10:02:10;;;;;;;5.07;3.63;;;3.30;99.90;;;;;;5051716;28;20053;-80
2020/12/27 10:04:36;;;;;;;4.53;3.58;;;3.30;99.90;;;;;;5069284;28;20511;-81
2020/12/27 10:07:02;;;;;;;4.30;3.50;;;3.30;99.90;;;;;;5071637;28;20021;-82
2020/12/27 10:09:28;;;;;;;4.25;3.53;;;3.30;99.90;;;;;;5070362;28;20028;-82
2020/12/27 10:11:54;;;;;;;8.60;3.33;;;3.30;99.90;;;;;;5071579;28;20029;-82
2020/12/27 10:14:19;;;;;;;7.13;3.58;;;3.30;99.90;;;;;;5058256;28;20061;-81
2020/12/27 10:16:45;;;;;;;3.70;3.28;;;3.30;99.90;;;;;;5050097;28;20044;-80
2020/12/27 10:19:11;;;;;;;4.85;3.05;;;3.30;99.90;;;;;;5051431;28;20043;-83
2020/12/27 10:21:36;;;;;;;6.18;3.40;;;3.30;99.90;;;;;;5051558;28;20583;-82
2020/12/27 10:24:02;;;;;;;4.47;3.10;;;3.30;99.90;;;;;;5065875;28;20021;-82
2020/12/27 10:26:28;;;;;;;6.68;3.88;;;3.30;99.90;;;;;;5071227;28;20063;-83
2020/12/27 10:28:53;;;;;;;5.78;3.08;;;3.40;99.90;;;;;;5071495;28;20039;-84
2020/12/27 10:31:19;;;;;;;4.95;3.33;;;3.40;99.90;;;;;;5071540;28;20119;-80
2020/12/27 10:33:45;;;;;;;11.55;3.60;;;3.40;99.90;;;;;;5060181;28;20029;-82
2020/12/27 10:36:10;;;;;;;5.30;3.05;;;3.40;99.90;;;;;;5053761;28;20158;-82
2020/12/27 10:38:36;;;;;;;7.53;2.70;;;3.40;99.90;;;;;;5067657;28;20032;-81
2020/12/27 10:41:02;;;;;;;3.38;2.53;;;3.40;99.90;;;;;;5074813;28;20497;-81
2020/12/27 10:43:28;;;;;;;4.50;3.10;;;3.40;99.90;;;;;;5070115;28;20048;-81
2020/12/27 10:46:04;;;;;;;3.83;2.65;;;3.40;99.90;;;;;;5074502;28;20488;-80
2020/12/27 10:48:32;;;;;;;3.58;2.53;;;3.40;99.90;;;;;;5074749;28;20052;-81
2020/12/27 10:50:58;;;;;;;3.30;2.92;;;3.40;99.90;;;;;;5073637;28;20531;-80
2020/12/27 10:53:24;;;;;;;6.80;4.30;;;3.40;99.90;;;;;;5072205;28;20041;-81
2020/12/27 10:55:50;;;;;;;6.53;3.13;;;3.40;99.90;;;;;;5054692;28;20056;-81
2020/12/27 10:58:16;;;;;;;3.95;3.15;;;3.40;99.90;;;;;;5053367;28;20029;-80
2020/12/27 11:00:43;;;;;;;6.75;2.97;;;3.40;99.90;;;;;;5053496;28;20071;-81
2020/12/27 11:03:09;;;;;;;12.65;2.65;;;3.40;99.90;;;;;;5053435;28;20017;-82
2020/12/27 11:05:35;;;;;;;6.07;2.92;;;3.40;99.90;;;;;;5071671;28;20081;-81
2020/12/27 11:08:01;;;;;;;5.80;3.00;;;3.40;99.90;;;;;;5074493;28;20024;-82
2020/12/27 11:10:26;;;;;;;4.57;3.10;;;3.40;99.90;;;;;;5073303;28;20024;-82
2020/12/27 11:12:52;;;;;;;4.80;2.88;;;3.40;99.90;;;;;;5059693;28;20449;-83
2020/12/27 11:15:18;;;;;;;8.52;2.67;;;3.40;99.90;;;;;;5057754;28;20036;-84
2020/12/27 11:17:43;;;;;;;4.47;2.72;;;3.40;99.90;;;;;;5054204;28;20118;-82
2020/12/27 11:20:13;;;;;;;5.32;2.78;;;3.40;99.90;;;;;;5054419;28;20071;-83
2020/12/27 11:22:40;;;;;;;6.45;3.00;;;3.40;99.90;;;;;;5054220;28;20511;-83
2020/12/27 11:25:07;;;;;;;6.88;3.03;;;3.40;99.90;;;;;;5054081;28;20021;-84
2020/12/27 11:27:32;;;;;;;4.30;2.92;;;3.40;99.90;;;;;;5054311;28;20071;-83
2020/12/27 11:29:58;;;;;;;6.13;3.70;;;3.40;99.90;;;;;;5054162;28;20029;-82
2020/12/27 11:32:23;;;;;;;4.32;3.20;;;3.40;99.90;;;;;;5054295;28;20025;-82
2020/12/27 11:34:49;;;;;;;6.93;3.20;;;3.40;99.90;;;;;;5055352;28;20035;-84
2020/12/27 11:37:15;;;;;;;5.22;3.60;;;3.40;99.90;;;;;;5073673;28;20028;-81
2020/12/27 11:39:41;;;;;;;4.68;3.40;;;3.40;99.90;;;;;;5074048;28;20016;-83
2020/12/27 11:42:07;;;;;;;4.82;3.50;;;3.40;99.90;;;;;;5072812;28;20065;-83
2020/12/27 11:44:33;;;;;;;5.03;3.30;;;3.30;99.90;;;;;;5073808;28;20024;-84
2020/12/27 11:47:02;;;;;;;8.02;3.50;;;3.30;99.90;;;;;;5054283;28;20036;-83
2020/12/27 11:49:27;;;;;;;5.82;3.20;;;3.30;99.90;;;;;;5052101;28;20036;-85
2020/12/27 11:51:53;;;;;;;4.80;3.45;;;3.30;99.90;;;;;;5052742;28;20021;-82
2020/12/27 11:54:18;;;;;;;5.72;4.00;;;3.30;99.90;;;;;;5071473;28;20029;-82
2020/12/27 11:56:44;;;;;;;8.20;4.18;;;3.20;99.90;;;;;;5072867;28;20111;-82
2020/12/27 11:59:12;;;;;;;7.15;4.25;;;3.20;99.90;;;;;;5073613;28;20020;-82
2020/12/27 12:01:37;;;;;;;8.88;4.13;;;3.20;99.90;;;;;;5072324;28;20024;-82
2020/12/27 12:04:03;;;;;;;8.00;4.18;;;3.20;99.90;;;;;;5059869;28;20504;-82
2020/12/27 12:06:29;;;;;;;5.65;3.85;;;3.20;99.90;;;;;;5052358;28;20023;-83
2020/12/27 12:08:55;;;;;;;7.85;4.65;;;3.20;99.90;;;;;;5052082;28;20067;-82
2020/12/27 12:11:21;;;;;;;5.53;4.13;;;3.20;99.90;;;;;;5053495;28;20021;-82
2020/12/27 12:13:46;;;;;;;6.13;4.07;;;3.20;99.90;;;;;;5059894;28;20120;-82
2020/12/27 12:16:20;;;;;;;11.15;3.60;;;3.30;99.90;;;;;;5073194;28;20056;-80
2020/12/27 12:18:46;;;;;;;5.13;4.10;;;3.30;99.90;;;;;;5071790;28;20024;-81
2020/12/27 12:21:12;;;;;;;7.13;4.28;;;3.30;99.90;;;;;;5073255;28;20421;-82
2020/12/27 12:23:37;;;;;;;5.72;4.07;;;3.30;99.90;;;;;;5060583;28;20104;-82
2020/12/27 12:26:03;;;;;;;4.65;3.70;;;3.30;99.90;;;;;;5052961;28;20399;-83
2020/12/27 12:28:29;;;;;;;5.82;3.90;;;3.30;99.90;;;;;;5053208;28;20024;-83
2020/12/27 12:30:54;;;;;;;5.80;4.47;;;3.30;99.90;;;;;;5053165;28;20033;-83
2020/12/27 12:33:20;;;;;;;4.68;3.78;;;3.30;99.90;;;;;;5059096;28;20039;-83
2020/12/27 12:35:46;;;;;;;9.50;3.30;;;3.30;99.90;;;;;;5072915;28;20070;-81
2020/12/27 12:38:11;;;;;;;5.45;4.05;;;3.30;99.90;;;;;;5072835;28;20101;-81
2020/12/27 12:40:37;;;;;;;4.68;3.88;;;3.30;99.90;;;;;;5072751;28;20020;-83
2020/12/27 12:43:04;;;;;;;7.35;4.03;;;3.30;99.90;;;;;;5071342;28;20024;-83
2020/12/27 12:45:29;;;;;;;6.07;3.95;;;3.30;99.90;;;;;;5052529;28;20025;-82
2020/12/27 12:47:55;;;;;;;6.15;3.72;;;3.30;99.90;;;;;;5052494;28;20061;-82
2020/12/27 12:50:20;;;;;;;5.53;3.33;;;3.30;99.90;;;;;;5051571;28;20028;-82
2020/12/27 12:52:46;;;;;;;6.05;3.90;;;3.30;99.90;;;;;;5053814;28;20021;-82
2020/12/27 12:55:12;;;;;;;8.93;4.35;;;3.40;99.90;;;;;;5051330;28;20029;-81